Watertown International Airport Watertown US
ICAO: KART
IATA: ART
Category: Medium
Scheduled Services: Yes

Elevation: 325 ft
TransAlt. 18000 ft.

Airport Communications:
WHEELER SACK APP/DEP:128.25
ASOS:133.525
BURLINGTON RDO:122.2
CTAF/UNICOM:123

KART Zoom In..

Runways:

(A) RW 07 length 4999 ft width 150 ft
ILS 111.10 / hdg 65

(B) RW 10 length 5999 ft width 150 ft
---- / hdg 105

(C) RW 25 length 4999 ft width 150 ft
---- / hdg 245

(D) RW 28 length 5999 ft width 150 ft
---- / hdg 285

Location; KART
Day. 06 / Time. 05.56 Zulu
* Altimeter: 30.09
* Temperature: 13° c. 55.4°f.
* Wind from: 000° Speed 00 kn.
Dewpoint: 11° c.
Visibility: 10 Statute Miles.
Clouds: Clear (automated report).

KART 060556Z AUTO 00000KT 10SM CLR 13/11 A3009 RMK AO2 SLP187 T01280106 10217 20122 51014

Going to: --> -->


Wind - Calm.

 
 
jpsmedia worldairports.se 2020   terms of use